Flight Track Log - Related Links

Times and Time Zones

All times are in EDT time to prevent confusion due to time zone crossing. See the JZA8145 flight status page for this flight to view local times or setup timezone preferences in your user account.

Time Position Orientation Groundspeed Altitude Reporting Facility
EDT Latitude Longitude Course Direction KTS MPH feet Rate Location/Type
Sat 03:01:41 PM 53.2500 -113.5667 166° South 120 138 3,700  Level Edmonton Center
Sat 03:02:41 PM 53.2167 -113.5333 149° Southeast 160 184 4,700 1,000 Climbing Edmonton Center
Sat 03:03:41 PM 53.1667 -113.5500 191° South 170 196 5,700 1,050 Climbing Edmonton Center
Sat 03:04:41 PM 53.1167 -113.5500 180° South 190 219 6,800 1,050 Climbing Edmonton Center
Sat 03:05:00 PM 53.0512 -113.8115 169° South  Level FlightAware Approximate
Sat 03:05:41 PM 53.0667 -113.5667 191° South 200 230 7,800  Level Edmonton Center
Sat 03:06:00 PM 52.9824 -113.7886 169° South  Level FlightAware Approximate
Sat 03:06:41 PM 53.0167 -113.5500 169° South 200 230 8,900  Level Edmonton Center
Sat 03:07:00 PM 52.9137 -113.7655 166° South  Level FlightAware Approximate
Sat 03:07:41 PM 52.9333 -113.5667 187° South 200 230 10,100  Level Edmonton Center
Sat 03:08:41 PM 52.8833 -113.5500 169° South 200 230 11,300 1,150 Climbing Edmonton Center
Sat 03:09:41 PM 52.8333 -113.5667 191° South 200 230 12,400 1,100 Climbing Edmonton Center
Sat 03:10:41 PM 52.7667 -113.5500 171° South 210 242 13,500 1,000 Climbing Edmonton Center
Sat 03:11:41 PM 52.7167 -113.5833 202° Southwest 220 253 14,400 1,050 Climbing Edmonton Center
Sat 03:12:41 PM 52.6500 -113.5667 171° South 220 253 15,600 1,000 Climbing Edmonton Center
Sat 03:13:41 PM 52.6000 -113.5833 191° South 220 253 16,400 700 Climbing Edmonton Center
Sat 03:14:41 PM 52.5333 -113.5667 171° South 220 253 17,000 300 Climbing Edmonton Center
Sat 03:15:41 PM 52.4667 -113.5833 189° South 250 288 17,000  Level Edmonton Center
Sat 03:16:41 PM 52.3833 -113.5833 180° South 270 311 17,000  Level Edmonton Center
Sat 03:17:41 PM 52.3000 -113.6000 187° South 280 322 17,000  Level Edmonton Center
Sat 03:18:41 PM 52.2333 -113.5833 171° South 280 322 17,000  Level Edmonton Center
Sat 03:19:41 PM 52.1333 -113.6000 186° South 280 322 17,000  Level Edmonton Center
Sat 03:20:41 PM 52.0667 -113.6167 189° South 290 334 17,000  Level Edmonton Center
Sat 03:21:41 PM 51.9833 -113.6167 180° South 290 334 17,000 -600 Level Edmonton Center
Sat 03:22:41 PM 51.9000 -113.6000 173° South 300 345 15,800 -1,400 Descending Edmonton Center
Sat 03:23:41 PM 51.8167 -113.6167 187° South 300 345 14,200 -1,450 Descending Edmonton Center
Sat 03:24:41 PM 51.7500 -113.6500 197° South 280 322 12,900 -1,300 Descending Edmonton Center
Sat 03:25:41 PM 51.6667 -113.6667 187° South 270 311 11,600 -950 Descending Edmonton Center
Sat 03:26:41 PM 51.5833 -113.7000 194° South 270 311 11,000 -300 Descending Edmonton Center
Sat 03:27:41 PM 51.5167 -113.7500 205° Southwest 250 288 11,000 -100 Level Edmonton Center
Sat 03:28:41 PM 51.4500 -113.7500 180° South 250 288 10,800 -500 Descending Edmonton Center
Sat 03:29:41 PM 51.4167 -113.8333 237° Southwest 240 276 10,000 -900 Descending Edmonton Center
Sat 03:30:41 PM 51.3833 -113.9333 242° Southwest 250 288 9,000 -750 Descending Edmonton Center
Sat 03:31:41 PM 51.3333 -114.0333 231° Southwest 220 253 8,500 -600 Descending Edmonton Center
Sat 03:32:41 PM 51.3000 -114.1000 231° Southwest 220 253 7,800 -800 Descending Edmonton Center
Sat 03:33:41 PM 51.2667 -114.1500 223° Southwest 210 242 6,900 -700 Descending Edmonton Center
Sat 03:34:41 PM 51.2167 -114.2000 212° Southwest 190 219 6,400 -400 Descending Edmonton Center
Sat 03:35:41 PM 51.1667 -114.2333 203° Southwest 170 196 6,100 -500 Descending Edmonton Center
Sat 03:36:41 PM 51.1333 -114.1833 137° Southeast 180 207 5,400 -800 Descending Edmonton Center
Sat 03:37:41 PM 51.1333 -114.1167 90° East 170 196 4,500 -800 Descending Edmonton Center
Sat 03:38:41 PM 51.1000 -114.0667 137° Southeast 130 150 3,800 -500 Descending Edmonton Center
Sat 03:39:41 PM 51.0833 -114.0333 129° Southeast 120 138 3,500 -300 Descending Edmonton Center

Login

Don't have an account? Register now (free) for customized features, flight alerts, and more!